createdAt,value
2023-12-05T00:01:22.466Z,97130.44
2023-12-05T00:03:55.547Z,97134.97
2023-12-05T00:06:26.152Z,97132.97
2023-12-05T00:08:56.709Z,97130.94
2023-12-05T00:11:29.766Z,97126.84
2023-12-05T00:14:00.329Z,97132.47
2023-12-05T00:16:30.935Z,97122.66
2023-12-05T00:19:03.879Z,97131.56
2023-12-05T00:21:34.315Z,97128.16
2023-12-05T00:24:04.560Z,97126.66
2023-12-05T00:26:36.126Z,97122.94
2023-12-05T00:29:06.381Z,97119.66
2023-12-05T00:31:36.642Z,97114.28
2023-12-05T00:34:09.675Z,97115.06
2023-12-05T00:36:40.167Z,97113.66
2023-12-05T00:39:10.501Z,97114.31
2023-12-05T00:41:40.776Z,97114.03
2023-12-05T00:44:11.158Z,97121.66
2023-12-05T00:46:41.403Z,97113.53
2023-12-05T00:49:14.432Z,97118.34
2023-12-05T00:51:44.794Z,97118.22
2023-12-05T00:54:15.802Z,97123.59
2023-12-05T00:56:46.160Z,97121.78
2023-12-05T00:59:17.209Z,97116.25
2023-12-05T01:01:47.614Z,97115.13
2023-12-05T01:04:20.682Z,97119.72
2023-12-05T01:06:51.069Z,97122.69
2023-12-05T01:09:22.569Z,97118.84
2023-12-05T01:11:53.025Z,97120.44
2023-12-05T01:14:23.973Z,97113.47
2023-12-05T01:16:54.246Z,97112.31
2023-12-05T01:19:27.189Z,97114.81
2023-12-05T01:21:57.440Z,97116.44
2023-12-05T01:24:27.945Z,97109.78
2023-12-05T01:26:58.140Z,97117.50
2023-12-05T01:29:28.333Z,97108.41
2023-12-05T01:31:58.532Z,97107.59
2023-12-05T01:34:31.707Z,97105.31
2023-12-05T01:37:02.007Z,97101.41
2023-12-05T01:39:32.311Z,97105.97
2023-12-05T01:42:02.609Z,97099.31
2023-12-05T01:44:33.004Z,97095.13
2023-12-05T01:47:04.899Z,97093.22
2023-12-05T01:49:38.148Z,97095.94
2023-12-05T01:52:09.263Z,97083.47
2023-12-05T01:54:39.565Z,97089.25
2023-12-05T01:57:09.910Z,97090.81
2023-12-05T01:59:40.300Z,97098.59
2023-12-05T02:02:10.946Z,97095.13
2023-12-05T02:04:44.321Z,97089.25
2023-12-05T02:07:14.759Z,97083.34
2023-12-05T02:09:45.176Z,97080.03
2023-12-05T02:12:15.707Z,97087.47
2023-12-05T02:14:46.551Z,97073.91
2023-12-05T02:17:19.051Z,97074.56
2023-12-05T02:19:57.117Z,97083.75
2023-12-05T02:23:07.193Z,97078.56
2023-12-05T02:25:51.160Z,97088.63
2023-12-05T02:28:24.039Z,97087.81
2023-12-05T02:30:54.545Z,97084.44
2023-12-05T02:33:25.431Z,97080.44
2023-12-05T02:36:02.074Z,97071.09
2023-12-05T02:38:36.755Z,97059.38
2023-12-05T02:41:13.388Z,97060.66
2023-12-05T02:43:50.466Z,97057.50
2023-12-05T02:46:21.619Z,97061.75
2023-12-05T02:48:52.738Z,97048.47
2023-12-05T02:51:23.576Z,97036.13
2023-12-05T02:53:53.821Z,97043.41
2023-12-05T02:56:24.694Z,97035.78
2023-12-05T02:58:57.531Z,97033.59
2023-12-05T03:01:27.808Z,97032.69
2023-12-05T03:03:58.339Z,97032.38
2023-12-05T03:06:31.743Z,97050.22
2023-12-05T03:09:03.020Z,97047.84
2023-12-05T03:11:33.290Z,97045.59
2023-12-05T03:14:07.409Z,97047.47
2023-12-05T03:16:37.777Z,97049.19
2023-12-05T03:19:08.224Z,97045.44
2023-12-05T03:21:38.967Z,97043.72
2023-12-05T03:24:10.044Z,97044.03
2023-12-05T03:26:40.368Z,97033.06
2023-12-05T03:29:13.215Z,97032.06
2023-12-05T03:31:43.998Z,97031.19
2023-12-05T03:34:14.742Z,97026.44
2023-12-05T03:36:45.043Z,97023.06
2023-12-05T03:39:16.459Z,97027.19
2023-12-05T03:41:47.596Z,97017.75
2023-12-05T03:44:20.519Z,97028.53
2023-12-05T03:46:51.017Z,97025.97
2023-12-05T03:49:21.268Z,97036.13
2023-12-05T03:51:51.776Z,97022.81
2023-12-05T03:54:22.427Z,97028.75
2023-12-05T03:56:52.681Z,97036.94
2023-12-05T03:59:25.549Z,97021.88
2023-12-05T04:01:55.848Z,97032.78
2023-12-05T04:04:26.476Z,97033.81
2023-12-05T04:06:57.475Z,97024.66
2023-12-05T04:09:27.858Z,97028.13
2023-12-05T04:11:58.070Z,97024.88
2023-12-05T04:14:30.926Z,97023.09
2023-12-05T04:17:01.211Z,97015.56
2023-12-05T04:19:31.766Z,97019.97
2023-12-05T04:22:02.097Z,97015.69
2023-12-05T04:24:32.373Z,97019.38
2023-12-05T04:27:02.596Z,97010.50
2023-12-05T04:29:35.427Z,97024.97
2023-12-05T04:32:05.809Z,97023.41
2023-12-05T04:34:36.089Z,97026.88
2023-12-05T04:37:06.585Z,97024.88
2023-12-05T04:39:36.858Z,97019.59
2023-12-05T04:42:07.944Z,97024.66
2023-12-05T04:44:40.786Z,97025.59
2023-12-05T04:47:11.092Z,97017.75
2023-12-05T04:49:41.530Z,97023.72
2023-12-05T04:52:13.902Z,97019.41
2023-12-05T04:54:44.248Z,97025.03
2023-12-05T04:57:14.502Z,97034.91
2023-12-05T04:59:47.439Z,97037.19
2023-12-05T05:02:17.765Z,97033.44
2023-12-05T05:04:48.514Z,97035.78
2023-12-05T05:07:18.767Z,97036.31
2023-12-05T05:09:49.075Z,97041.97
2023-12-05T05:12:19.468Z,97040.69
2023-12-05T05:14:52.363Z,97045.41
2023-12-05T05:17:22.627Z,97052.88
2023-12-05T05:19:52.868Z,97039.97
2023-12-05T05:22:23.111Z,97044.75
2023-12-05T05:24:53.371Z,97053.66
2023-12-05T05:27:23.672Z,97045.03
2023-12-05T05:29:56.490Z,97047.34
2023-12-05T05:32:26.940Z,97056.47
2023-12-05T05:34:57.125Z,97051.25
2023-12-05T07:18:57.008Z,97078.47
2023-12-05T07:21:28.094Z,97075.25
2023-12-05T07:24:01.093Z,97078.72
2023-12-05T07:28:08.108Z,97076.88
2023-12-05T07:30:38.427Z,97063.13
2023-12-05T07:33:08.982Z,97065.03
2023-12-05T07:35:39.393Z,97057.97
2023-12-05T07:40:16.224Z,97068.47
2023-12-05T07:42:46.541Z,97057.66
2023-12-05T07:45:17.635Z,97064.59
2023-12-05T07:47:51.218Z,97066.44
2023-12-05T07:50:21.887Z,97067.44
2023-12-05T09:04:09.310Z,97080.41
2023-12-05T09:16:40.921Z,97081.38
2023-12-05T09:19:12.872Z,97080.16
2023-12-05T09:21:44.139Z,97075.78
2023-12-05T09:24:15.401Z,97076.28
2023-12-05T09:26:47.948Z,97066.13
2023-12-05T09:29:19.206Z,97065.56
2023-12-05T09:31:53.171Z,97058.69
2023-12-05T09:34:24.151Z,97058.53
2023-12-05T09:36:57.800Z,97059.47
2023-12-05T09:39:52.336Z,97069.25
2023-12-05T09:42:23.973Z,97064.66
2023-12-05T09:44:54.361Z,97066.66
2023-12-05T09:47:29.824Z,97076.31
2023-12-05T09:50:00.869Z,97062.03
2023-12-05T09:52:31.514Z,97054.44
2023-12-05T09:55:02.193Z,97055.22
2023-12-05T09:57:32.716Z,97051.53
2023-12-05T10:00:02.981Z,97043.66
2023-12-05T10:02:47.566Z,97038.75
2023-12-05T10:05:19.304Z,97032.50
2023-12-05T10:07:50.661Z,97033.75
2023-12-05T10:10:22.924Z,97024.41
2023-12-05T10:12:53.224Z,97032.38
2023-12-05T10:15:24.559Z,97025.72
2023-12-05T10:17:58.007Z,97025.44
2023-12-05T10:20:28.390Z,97024.47
2023-12-05T10:22:58.752Z,97024.00
2023-12-05T10:25:29.108Z,97028.41
2023-12-05T10:28:08.257Z,97029.75
2023-12-05T10:30:39.694Z,97024.72
2023-12-05T10:33:17.728Z,97017.59
2023-12-05T10:35:48.839Z,97020.34
2023-12-05T10:38:21.629Z,97014.63
2023-12-05T10:40:56.339Z,97014.00
2023-12-05T10:46:10.757Z,97015.66
2023-12-05T10:48:44.123Z,97025.25
2023-12-05T10:51:14.771Z,97025.31
2023-12-05T10:53:45.086Z,97024.34
2023-12-05T10:56:16.406Z,97027.19
2023-12-05T10:58:46.865Z,97021.16
2023-12-05T11:01:18.965Z,97017.91
2023-12-05T11:03:53.098Z,97016.16
2023-12-05T11:06:23.900Z,97014.44
2023-12-05T11:08:54.432Z,97023.47
2023-12-05T11:11:26.518Z,97024.88
2023-12-05T11:13:57.668Z,97016.06
2023-12-05T11:16:28.892Z,97021.94
2023-12-05T11:19:07.947Z,97015.16
2023-12-05T11:21:48.142Z,97017.94
2023-12-05T11:24:42.648Z,97013.44
2023-12-05T11:27:35.951Z,97008.88
2023-12-05T11:30:52.419Z,97011.78
2023-12-05T11:33:41.074Z,97014.41
2023-12-05T11:36:22.717Z,97013.13
2023-12-05T11:38:53.529Z,97000.09
2023-12-05T11:41:24.353Z,97011.47
2023-12-05T11:44:22.414Z,97011.66
2023-12-05T11:46:55.485Z,97003.84
2023-12-05T11:49:33.396Z,97006.38
2023-12-05T11:52:13.067Z,97001.16
2023-12-05T11:54:44.547Z,97003.22
2023-12-05T11:57:16.909Z,96995.72
2023-12-05T11:59:48.151Z,96997.25
2023-12-05T12:02:21.801Z,96992.28
2023-12-05T12:04:52.096Z,96989.44
2023-12-05T12:07:25.144Z,96989.34
2023-12-05T12:09:56.210Z,96987.09
2023-12-05T12:12:28.828Z,96991.00
2023-12-05T12:15:00.935Z,96989.94
2023-12-05T12:17:31.294Z,96992.03
2023-12-05T12:20:03.135Z,96994.03
2023-12-05T12:22:36.468Z,96991.63
2023-12-05T12:25:13.137Z,96989.88
2023-12-05T12:27:43.743Z,96996.97
2023-12-05T12:30:19.765Z,96987.47
2023-12-05T12:32:57.619Z,96991.63
2023-12-05T12:35:31.119Z,96988.22
2023-12-05T12:38:04.518Z,96984.44
2023-12-05T12:40:35.270Z,96984.44
2023-12-05T12:43:05.714Z,96975.00
2023-12-05T12:45:36.417Z,96971.41
2023-12-05T12:48:07.537Z,96973.16
2023-12-05T12:50:37.946Z,96980.38
2023-12-05T12:53:10.804Z,96970.44
2023-12-05T12:55:41.183Z,96979.00
2023-12-05T12:58:11.419Z,96970.94
2023-12-05T13:00:42.941Z,96981.19
2023-12-05T13:03:14.604Z,96978.50
2023-12-05T13:05:45.539Z,96976.81
2023-12-05T13:08:18.469Z,96975.09
2023-12-05T13:10:49.094Z,96975.22
2023-12-05T13:13:22.465Z,96969.34
2023-12-05T13:15:52.727Z,96972.81
2023-12-05T13:18:22.996Z,96977.22
2023-12-05T13:20:55.281Z,96972.91
2023-12-05T13:23:28.277Z,96973.75
2023-12-05T13:25:58.520Z,96973.75
2023-12-05T13:28:28.792Z,96974.44
2023-12-05T13:30:59.156Z,96975.16
2023-12-05T13:33:29.534Z,96980.09
2023-12-05T13:35:59.919Z,96977.69
2023-12-05T13:38:32.738Z,96971.78
2023-12-05T13:41:03.031Z,96977.00
2023-12-05T13:43:33.242Z,96976.84
2023-12-05T13:46:04.957Z,96979.34
2023-12-05T13:48:35.580Z,96980.09
2023-12-05T13:51:08.613Z,96975.59
2023-12-05T13:53:41.506Z,96982.38
2023-12-05T13:56:12.889Z,96989.66
2023-12-05T13:58:44.689Z,96986.81
2023-12-05T14:01:15.032Z,96985.06
2023-12-05T14:03:45.502Z,96989.91
2023-12-05T14:06:15.858Z,96988.41
2023-12-05T14:08:48.871Z,96982.22
2023-12-05T14:11:19.288Z,96985.69
2023-12-05T14:13:49.518Z,96984.81
2023-12-05T14:16:19.792Z,96983.19
2023-12-05T14:18:50.145Z,96990.81
2023-12-05T14:21:20.411Z,96990.59
2023-12-05T14:23:53.283Z,96987.16
2023-12-05T14:26:23.475Z,96991.50
2023-12-05T14:28:53.718Z,96996.63
2023-12-05T14:31:23.966Z,96992.13
2023-12-05T14:33:54.461Z,96999.59
2023-12-05T14:36:24.997Z,97000.28
2023-12-05T14:39:04.436Z,96997.63
2023-12-05T14:41:40.642Z,96997.56
2023-12-05T14:44:10.947Z,97007.50
2023-12-05T14:46:41.189Z,97008.19
2023-12-05T14:49:11.511Z,97004.56
2023-12-05T14:51:41.761Z,97002.78
2023-12-05T14:54:14.564Z,97000.19
2023-12-05T14:56:44.876Z,97005.41
2023-12-05T14:59:15.621Z,97009.69
2023-12-05T15:01:45.903Z,97017.16
2023-12-05T15:04:16.563Z,97022.88
2023-12-05T15:06:47.039Z,97018.59
2023-12-05T15:09:19.906Z,97014.88
2023-12-05T15:11:51.568Z,97013.69
2023-12-05T15:14:21.805Z,97021.47
2023-12-05T15:16:52.343Z,97024.97
2023-12-05T15:19:22.697Z,97021.25
2023-12-05T15:21:53.102Z,97022.97
2023-12-05T15:24:26.064Z,97028.75
2023-12-05T15:26:56.366Z,97027.81
2023-12-05T15:29:32.414Z,97040.03
2023-12-05T15:32:10.896Z,97034.81
2023-12-05T15:34:41.129Z,97027.41
2023-12-05T15:37:11.476Z,97038.13
2023-12-05T15:39:45.019Z,97036.03
2023-12-05T15:42:15.922Z,97034.09
2023-12-05T15:44:46.213Z,97037.91
2023-12-05T15:47:16.825Z,97046.31
2023-12-05T15:49:47.543Z,97044.34
2023-12-05T15:52:17.946Z,97045.31
2023-12-05T15:54:50.813Z,97043.44
2023-12-05T15:57:21.285Z,97043.59
2023-12-05T15:59:51.778Z,97040.22
2023-12-05T16:02:23.200Z,97035.97
2023-12-05T16:04:53.559Z,97044.84
2023-12-05T16:07:27.416Z,97042.28
2023-12-05T16:10:00.859Z,97042.59
2023-12-05T16:12:31.470Z,97045.59
2023-12-05T16:15:02.647Z,97042.50
2023-12-05T16:17:32.901Z,97050.22
2023-12-05T16:20:03.801Z,97045.69
2023-12-05T16:22:34.559Z,97043.59
2023-12-05T16:25:08.432Z,97040.09
2023-12-05T16:27:38.689Z,97042.44
2023-12-05T16:30:10.994Z,97040.50
2023-12-05T16:32:42.713Z,97036.09
2023-12-05T16:35:13.160Z,97041.03
2023-12-05T16:37:44.996Z,97046.88
2023-12-05T16:40:18.289Z,97051.19
2023-12-05T16:42:45.967Z,97049.56
2023-12-05T16:45:18.700Z,97057.94
2023-12-05T16:47:48.988Z,97070.50
2023-12-05T16:50:19.270Z,97053.66
2023-12-05T16:52:49.737Z,97061.50
2023-12-05T16:55:22.927Z,97060.56
2023-12-05T16:57:53.215Z,97060.59
2023-12-05T17:00:24.357Z,97063.06
2023-12-05T17:02:55.095Z,97057.22
2023-12-05T17:05:25.456Z,97057.22
2023-12-05T17:07:55.795Z,97065.69
2023-12-05T17:10:28.919Z,97057.94
2023-12-05T17:12:59.722Z,97064.84
2023-12-05T17:15:30.217Z,97069.22
2023-12-05T17:18:00.549Z,97073.44
2023-12-05T17:20:30.886Z,97075.91
2023-12-05T17:23:01.095Z,97074.47
2023-12-05T17:25:33.985Z,97080.22
2023-12-05T17:28:04.462Z,97086.06
2023-12-05T17:30:35.429Z,97083.03
2023-12-05T17:33:06.718Z,97082.91
2023-12-05T17:35:37.015Z,97092.69
2023-12-05T17:38:07.382Z,97090.06
2023-12-05T17:40:40.226Z,97097.94
2023-12-05T17:43:10.829Z,97096.94
2023-12-05T17:45:41.174Z,97087.75
2023-12-05T17:48:11.694Z,97094.47
2023-12-05T17:50:42.004Z,97105.47
2023-12-05T17:53:12.484Z,97096.09
2023-12-05T17:55:45.544Z,97095.22
2023-12-05T17:58:16.070Z,97094.13
2023-12-05T18:00:46.792Z,97093.94
2023-12-05T18:03:17.197Z,97104.97
2023-12-05T18:05:47.531Z,97103.19
2023-12-05T18:08:18.080Z,97106.59
2023-12-05T18:10:51.021Z,97109.00
2023-12-05T18:13:21.599Z,97108.44
2023-12-05T18:15:51.987Z,97105.22
2023-12-05T18:18:22.522Z,97101.88
2023-12-05T18:20:52.951Z,97108.53
2023-12-05T18:23:23.281Z,97102.81
2023-12-05T18:25:56.278Z,97105.91
2023-12-05T18:28:26.724Z,97104.97
2023-12-05T18:30:57.201Z,97119.19
2023-12-05T18:33:27.656Z,97133.44
2023-12-05T18:35:59.005Z,97124.13
2023-12-05T18:38:30.020Z,97129.38
2023-12-05T18:41:03.271Z,97121.66
2023-12-05T18:43:37.213Z,97127.66
2023-12-05T18:46:09.550Z,97125.91
2023-12-05T18:48:42.093Z,97129.22
2023-12-05T18:51:14.050Z,97142.13
2023-12-05T18:53:46.458Z,97147.22
2023-12-05T18:56:20.659Z,97156.66
2023-12-05T18:58:52.574Z,97149.88
2023-12-05T19:01:24.175Z,97152.22
2023-12-05T19:03:57.019Z,97151.38
2023-12-05T19:06:29.236Z,97153.09
2023-12-05T19:09:01.128Z,97148.00
2023-12-05T19:11:35.991Z,97140.38
2023-12-05T19:14:08.052Z,97137.84
2023-12-05T19:16:40.174Z,97130.31
2023-12-05T19:19:12.610Z,97135.47
2023-12-05T19:21:54.912Z,97132.06
2023-12-05T19:24:28.523Z,97127.94
2023-12-05T19:27:06.550Z,97134.06
2023-12-05T19:29:39.953Z,97132.38
2023-12-05T19:32:12.808Z,97127.25
2023-12-05T19:34:47.065Z,97139.03
2023-12-05T19:37:21.139Z,97135.72
2023-12-05T19:39:54.721Z,97145.13
2023-12-05T19:42:33.215Z,97144.44
2023-12-05T19:45:07.211Z,97142.81
2023-12-05T19:47:40.841Z,97142.75
2023-12-05T19:50:15.961Z,97145.25
2023-12-05T19:52:49.783Z,97142.72
2023-12-05T19:55:23.436Z,97141.03
2023-12-05T19:57:59.746Z,97141.97
2023-12-05T20:00:33.334Z,97144.59
2023-12-05T20:03:09.304Z,97141.25
2023-12-05T20:05:42.739Z,97147.88
2023-12-05T20:08:16.515Z,97146.97
2023-12-05T20:10:50.837Z,97149.50
2023-12-05T20:13:27.908Z,97144.00
2023-12-05T20:16:01.762Z,97148.09
2023-12-05T20:18:35.619Z,97145.44
2023-12-05T20:21:09.327Z,97153.75
2023-12-05T20:23:43.016Z,97151.97
2023-12-05T20:26:16.368Z,97155.97
2023-12-05T20:28:52.984Z,97145.03
2023-12-05T20:31:26.216Z,97160.38
2023-12-05T20:34:00.928Z,97163.50
2023-12-05T20:36:35.817Z,97161.06
2023-12-05T20:39:11.091Z,97162.53
2023-12-05T20:41:43.365Z,97158.38
2023-12-05T20:44:20.731Z,97153.84
2023-12-05T20:46:53.037Z,97157.97
2023-12-05T20:49:25.289Z,97157.13
2023-12-05T20:51:57.962Z,97162.19
2023-12-05T20:54:29.299Z,97159.56
2023-12-05T20:57:00.218Z,97168.78
2023-12-05T20:59:33.364Z,97168.03
2023-12-05T21:02:04.030Z,97161.75
2023-12-05T21:04:34.580Z,97166.16
2023-12-05T21:07:05.260Z,97164.53
2023-12-05T21:09:35.647Z,97160.50
2023-12-05T21:12:06.131Z,97157.03
2023-12-05T21:14:40.115Z,97157.78
2023-12-05T21:17:10.650Z,97151.78
2023-12-05T21:19:40.970Z,97155.94
2023-12-05T21:22:12.905Z,97156.50
2023-12-05T21:24:43.445Z,97154.16
2023-12-05T21:27:13.832Z,97162.78
2023-12-05T21:29:47.641Z,97170.97
2023-12-05T21:32:18.228Z,97169.56
2023-12-05T21:34:48.814Z,97170.91
2023-12-05T21:37:20.279Z,97162.03
2023-12-05T21:39:50.733Z,97157.03
2023-12-05T21:42:21.030Z,97165.25
2023-12-05T21:44:53.996Z,97158.66
2023-12-05T21:47:24.347Z,97156.78
2023-12-05T21:49:54.990Z,97156.69
2023-12-05T21:52:25.287Z,97149.91
2023-12-05T21:54:55.821Z,97154.22
2023-12-05T21:57:26.853Z,97149.03
2023-12-05T21:59:59.735Z,97162.69
2023-12-05T22:02:29.999Z,97158.56
2023-12-05T22:05:00.364Z,97168.69
2023-12-05T22:07:31.659Z,97164.38
2023-12-05T22:10:02.288Z,97162.78
2023-12-05T22:12:32.557Z,97162.09
2023-12-05T22:15:05.901Z,97164.66
2023-12-05T22:17:38.255Z,97163.88
2023-12-05T22:20:10.308Z,97160.06
2023-12-05T22:22:40.558Z,97169.38
2023-12-05T22:25:11.853Z,97159.69
2023-12-05T22:27:42.158Z,97163.81
2023-12-05T22:30:17.016Z,97171.66
2023-12-05T22:32:47.501Z,97175.84
2023-12-05T22:35:17.964Z,97172.66
2023-12-05T22:37:48.215Z,97164.28
2023-12-05T22:40:19.009Z,97169.41
2023-12-05T22:42:49.312Z,97169.28
2023-12-05T22:45:22.376Z,97168.44
2023-12-05T22:47:52.677Z,97169.25
2023-12-05T22:50:23.522Z,97169.19
2023-12-05T22:52:54.932Z,97171.75
2023-12-05T22:55:25.258Z,97168.78
2023-12-05T22:57:55.709Z,97174.56
2023-12-05T23:00:31.599Z,97160.91
2023-12-05T23:03:01.919Z,97174.44
2023-12-05T23:05:32.511Z,97171.34
2023-12-05T23:08:02.787Z,97168.97
2023-12-05T23:10:33.726Z,97166.28
2023-12-05T23:13:04.169Z,97166.41
2023-12-05T23:15:37.082Z,97171.50
2023-12-05T23:18:09.859Z,97162.22
2023-12-05T23:20:40.193Z,97153.00
2023-12-05T23:23:10.535Z,97152.53
2023-12-05T23:25:40.871Z,97152.78
2023-12-05T23:28:15.730Z,97152.72
2023-12-05T23:30:54.849Z,97148.50
2023-12-05T23:33:25.386Z,97141.56
2023-12-05T23:35:55.664Z,97141.72
2023-12-05T23:38:25.917Z,97143.56
2023-12-05T23:40:57.266Z,97141.91
2023-12-05T23:43:28.077Z,97132.91
2023-12-05T23:46:01.886Z,97137.03
2023-12-05T23:48:32.475Z,97140.28
2023-12-05T23:51:02.967Z,97135.97
2023-12-05T23:53:33.317Z,97135.97
2023-12-05T23:56:03.604Z,97128.34
2023-12-05T23:58:33.952Z,97139.19
